Stoney Creek, Canada
Current Conditions -  °F | °C
As of 2:00 PM on Sunday 21 Dec 2014 (Local Time) from CYHM Reporting Station
Broken Clouds Broken Clouds  
Wind Chill: 24°   Ceiling: 3000
Heat Index: 30°   Visibility: 8mi
Dew Point: 21°   Wind: 6mph
Humidity: 69%   Direction: 250°WSW
Pressure: 30.27"   Gusts: NA
Location:  43.21°N, 79.69°W
Report Text: CYHM 211900Z 25005KT 8SM FEW025 BKN030 M01/M06 A3027 RMK CU2SC5 SLP262
Loading
Personal Weather Stations






























Interactive Weather Map New forecast layout! Learn more

10-Day Weather Forecast

Advertisements
Track Severe Weather on mobile